Time;durP1;ratioP1;P1;durP2;ratioP2;P2;SDS_P1;SDS_P2;PMS_P1;PMS_P2;Temp;Humidity;BMP_temperature;BMP_pressure;BME280_temperature;BME280_humidity;BME280_pressure;Samples;Min_cycle;Max_cycle;Signal;HPM_P1;HPM_P2
2021/11/18 00:01:29;;;;;;;51.85;32.83;;;13.60;95.70;;;;;;5049039;28;20094;-58
2021/11/18 00:03:55;;;;;;;50.72;32.72;;;13.50;95.40;;;;;;5042650;28;20487;-58
2021/11/18 00:06:22;;;;;;;57.35;33.67;;;13.50;95.80;;;;;;5041183;28;20395;-58
2021/11/18 00:08:48;;;;;;;49.95;31.67;;;13.50;95.70;;;;;;5048771;28;20437;-58
2021/11/18 00:11:17;;;;;;;53.72;33.78;;;13.50;95.70;;;;;;5049365;28;20486;-57
2021/11/18 00:13:48;;;;;;;56.60;34.38;;;13.50;95.90;;;;;;5049716;28;20025;-59
2021/11/18 00:16:14;;;;;;;57.03;33.13;;;13.50;95.80;;;;;;5051679;28;20052;-58
2021/11/18 00:18:40;;;;;;;54.10;33.55;;;13.50;95.80;;;;;;5049173;28;20529;-59
2021/11/18 00:21:18;;;;;;;52.58;31.45;;;13.50;95.70;;;;;;5045502;28;20025;-59
2021/11/18 00:23:47;;;;;;;55.78;32.90;;;13.40;95.70;;;;;;5046654;28;20031;-57
2021/11/18 00:26:13;;;;;;;55.33;34.42;;;13.60;95.80;;;;;;5042266;28;20076;-59
2021/11/18 00:28:39;;;;;;;52.33;33.55;;;13.60;95.60;;;;;;5045981;28;20041;-58
2021/11/18 00:31:07;;;;;;;51.08;32.67;;;13.60;95.80;;;;;;5045632;28;20107;-58
2021/11/18 00:33:33;;;;;;;52.53;33.10;;;13.60;95.70;;;;;;5047293;28;20040;-58
2021/11/18 00:35:59;;;;;;;54.95;33.28;;;13.60;95.80;;;;;;5055522;28;20033;-59
2021/11/18 00:38:25;;;;;;;48.63;31.77;;;13.50;95.70;;;;;;5053680;28;20056;-58
2021/11/18 00:40:53;;;;;;;51.55;32.03;;;13.40;95.40;;;;;;5049759;28;20032;-57
2021/11/18 00:43:20;;;;;;;51.53;32.90;;;13.40;95.60;;;;;;5048538;28;20029;-58
2021/11/18 00:45:47;;;;;;;54.63;33.55;;;13.50;95.40;;;;;;5054985;28;20048;-59
2021/11/18 00:48:13;;;;;;;52.78;32.15;;;13.40;95.60;;;;;;5053758;28;20087;-59
2021/11/18 00:50:43;;;;;;;49.45;30.45;;;13.30;95.70;;;;;;5048526;28;20029;-58
2021/11/18 00:53:09;;;;;;;49.78;32.28;;;13.40;96.00;;;;;;5051095;28;20025;-58
2021/11/18 00:55:35;;;;;;;56.17;33.78;;;13.40;95.50;;;;;;5051499;28;20036;-59
2021/11/18 00:58:01;;;;;;;51.58;33.35;;;13.50;95.60;;;;;;5052196;28;20487;-57
2021/11/18 01:00:32;;;;;;;51.20;31.98;;;13.40;95.50;;;;;;5054120;28;20041;-56
2021/11/18 01:02:58;;;;;;;54.00;33.30;;;13.40;96.00;;;;;;5048819;28;20021;-58
2021/11/18 01:05:35;;;;;;;47.47;31.30;;;13.50;95.90;;;;;;5046933;28;20056;-59
2021/11/18 01:08:02;;;;;;;49.55;31.92;;;13.50;95.40;;;;;;5048798;28;20029;-57
2021/11/18 01:10:32;;;;;;;49.25;31.67;;;13.30;95.70;;;;;;5045247;28;20466;-57
2021/11/18 01:12:59;;;;;;;52.70;32.55;;;13.40;96.00;;;;;;5047516;28;20036;-57
2021/11/18 01:15:29;;;;;;;51.30;30.30;;;13.40;95.90;;;;;;5054414;28;20025;-57
2021/11/18 01:17:55;;;;;;;54.78;33.28;;;13.30;95.80;;;;;;5040994;28;20021;-53
2021/11/18 01:20:23;;;;;;;54.17;32.10;;;13.40;95.80;;;;;;5052285;28;20043;-58
2021/11/18 01:22:50;;;;;;;53.40;33.92;;;13.30;95.70;;;;;;5049159;28;20479;-58
2021/11/18 01:25:16;;;;;;;48.42;32.50;;;13.30;95.80;;;;;;5049774;28;20091;-59
2021/11/18 01:27:43;;;;;;;55.78;33.45;;;13.10;95.70;;;;;;5050421;28;20041;-58
2021/11/18 01:30:14;;;;;;;57.17;33.38;;;13.30;95.70;;;;;;5049945;28;20038;-57
2021/11/18 01:32:39;;;;;;;54.75;33.28;;;13.30;96.00;;;;;;5053166;28;20036;-57
2021/11/18 01:35:06;;;;;;;49.72;30.90;;;13.40;95.80;;;;;;5054255;28;20021;-56
2021/11/18 01:37:32;;;;;;;47.50;31.50;;;13.30;95.90;;;;;;5046912;28;20434;-57
2021/11/18 01:39:58;;;;;;;48.17;31.13;;;13.30;95.80;;;;;;5050049;28;20019;-58
2021/11/18 01:42:24;;;;;;;49.55;31.17;;;13.10;95.60;;;;;;5046163;28;20025;-58
2021/11/18 01:44:51;;;;;;;46.80;30.17;;;13.20;95.70;;;;;;5053743;28;20087;-57
2021/11/18 01:47:17;;;;;;;51.33;30.60;;;13.20;96.10;;;;;;5053906;28;20037;-57
2021/11/18 01:49:46;;;;;;;50.35;31.05;;;13.30;95.60;;;;;;5065702;28;20394;-58
2021/11/18 01:52:14;;;;;;;50.38;30.83;;;13.20;95.90;;;;;;5059294;28;20037;-57
2021/11/18 01:54:41;;;;;;;50.58;30.90;;;13.30;95.80;;;;;;5046467;28;20022;-58
2021/11/18 01:57:11;;;;;;;46.75;29.67;;;13.20;95.70;;;;;;5049229;28;20494;-59
2021/11/18 01:59:40;;;;;;;48.85;30.60;;;13.20;95.30;;;;;;5048760;28;20029;-58
2021/11/18 02:02:08;;;;;;;53.75;32.33;;;13.20;95.90;;;;;;5052489;28;20025;-58
2021/11/18 02:04:45;;;;;;;50.90;31.27;;;13.30;96.10;;;;;;5049076;28;20040;-58
2021/11/18 02:07:11;;;;;;;50.50;31.75;;;13.30;95.90;;;;;;5050857;28;20163;-59
2021/11/18 02:09:39;;;;;;;51.50;31.83;;;13.20;95.80;;;;;;5043928;28;20100;-57
2021/11/18 02:12:22;;;;;;;50.47;31.90;;;13.10;96.00;;;;;;5052804;28;20033;-57
2021/11/18 02:14:48;;;;;;;50.65;30.95;;;13.30;96.00;;;;;;5040805;28;20520;-56
2021/11/18 02:17:16;;;;;;;51.90;32.45;;;13.30;95.40;;;;;;5051311;28;20041;-55
2021/11/18 02:19:56;;;;;;;47.78;31.65;;;13.30;96.00;;;;;;5047545;28;20425;-58
2021/11/18 02:22:23;;;;;;;53.15;32.30;;;13.30;96.10;;;;;;5053311;28;20029;-57
2021/11/18 02:24:54;;;;;;;52.28;32.75;;;13.40;95.90;;;;;;5040447;28;20025;-56
2021/11/18 02:27:24;;;;;;;51.03;31.60;;;13.30;96.10;;;;;;5067485;28;20033;-57
2021/11/18 02:29:52;;;;;;;60.30;32.85;;;13.30;96.30;;;;;;5048740;28;20098;-56
2021/11/18 02:32:21;;;;;;;52.15;32.72;;;13.20;96.00;;;;;;5047430;28;20068;-57
2021/11/18 02:34:48;;;;;;;51.58;31.73;;;13.20;96.00;;;;;;5050990;28;20529;-58
2021/11/18 02:37:15;;;;;;;49.50;31.17;;;13.20;95.50;;;;;;5051515;28;20083;-59
2021/11/18 02:39:41;;;;;;;49.63;30.83;;;13.30;96.20;;;;;;5044625;28;20026;-58
2021/11/18 02:42:08;;;;;;;49.08;31.35;;;13.20;96.10;;;;;;5043754;28;20501;-57
2021/11/18 02:44:36;;;;;;;52.15;32.17;;;13.00;95.90;;;;;;5047198;28;20060;-57
2021/11/18 02:47:06;;;;;;;51.05;31.08;;;13.10;96.10;;;;;;5044675;28;20513;-56
2021/11/18 02:49:32;;;;;;;51.38;31.58;;;13.30;96.10;;;;;;5045369;28;20033;-56
2021/11/18 02:51:58;;;;;;;53.58;33.00;;;13.20;96.50;;;;;;5052584;28;20025;-58
2021/11/18 02:54:24;;;;;;;56.90;34.40;;;13.20;96.20;;;;;;5047942;28;20478;-56
2021/11/18 02:56:52;;;;;;;50.92;32.80;;;13.20;96.60;;;;;;5046747;28;20025;-57
2021/11/18 02:59:19;;;;;;;51.95;32.60;;;13.10;96.50;;;;;;5046023;28;20378;-56
2021/11/18 03:01:46;;;;;;;52.92;33.33;;;13.10;96.40;;;;;;5044664;28;20030;-58
2021/11/18 03:04:13;;;;;;;50.08;33.15;;;13.10;96.20;;;;;;5041077;28;20025;-58
2021/11/18 03:06:39;;;;;;;50.83;32.20;;;12.90;96.70;;;;;;5047557;28;20094;-58
2021/11/18 03:09:05;;;;;;;53.55;33.90;;;13.10;96.60;;;;;;5045359;28;20028;-56
2021/11/18 03:11:31;;;;;;;54.00;33.30;;;13.10;96.50;;;;;;5050302;28;20532;-57
2021/11/18 03:13:57;;;;;;;56.60;34.22;;;13.10;96.60;;;;;;5040582;28;20078;-57
2021/11/18 03:16:24;;;;;;;54.95;34.13;;;13.10;96.80;;;;;;5050657;28;20029;-56
2021/11/18 03:18:50;;;;;;;53.33;32.13;;;13.20;96.80;;;;;;5035902;28;20022;-55
2021/11/18 03:21:19;;;;;;;55.88;33.42;;;13.20;96.80;;;;;;5048082;28;20029;-55
2021/11/18 03:23:45;;;;;;;53.67;32.83;;;13.10;96.50;;;;;;5048576;28;20043;-54
2021/11/18 03:26:14;;;;;;;54.47;34.55;;;13.20;96.90;;;;;;5049913;28;20417;-58
2021/11/18 03:28:40;;;;;;;57.47;33.28;;;13.20;96.70;;;;;;5051266;28;20359;-58
2021/11/18 03:31:08;;;;;;;55.25;32.75;;;13.10;96.30;;;;;;5046145;28;20041;-56
2021/11/18 03:33:38;;;;;;;53.05;33.35;;;13.10;96.80;;;;;;5048194;28;20040;-56
2021/11/18 03:36:04;;;;;;;57.22;34.17;;;13.10;96.90;;;;;;5052314;28;20057;-58
2021/11/18 03:38:31;;;;;;;53.72;34.45;;;13.20;96.90;;;;;;5050535;28;20048;-58
2021/11/18 03:41:03;;;;;;;53.42;34.03;;;13.20;96.90;;;;;;5051600;28;20047;-58
2021/11/18 03:43:35;;;;;;;55.72;33.03;;;13.20;96.90;;;;;;5049835;28;20029;-57
2021/11/18 03:46:07;;;;;;;58.50;33.97;;;13.20;96.80;;;;;;5052118;28;20098;-55
2021/11/18 03:48:33;;;;;;;53.53;33.17;;;13.20;96.60;;;;;;5058023;28;20078;-57
2021/11/18 03:51:01;;;;;;;59.20;35.60;;;13.20;97.00;;;;;;5035415;28;20421;-55
2021/11/18 03:53:27;;;;;;;56.03;35.20;;;13.10;96.80;;;;;;5047929;28;20025;-57
2021/11/18 03:55:53;;;;;;;54.03;33.65;;;13.20;97.10;;;;;;5038993;28;20036;-53
2021/11/18 03:58:19;;;;;;;54.70;33.55;;;13.00;97.20;;;;;;5042302;28;20032;-57
2021/11/18 04:00:46;;;;;;;59.83;34.58;;;13.20;97.30;;;;;;5047376;28;20423;-58
2021/11/18 04:03:13;;;;;;;54.65;34.28;;;13.00;97.10;;;;;;5044235;28;20040;-56
2021/11/18 04:05:40;;;;;;;53.42;34.33;;;13.00;97.00;;;;;;5053242;28;20059;-59
2021/11/18 04:08:07;;;;;;;61.25;34.33;;;13.00;97.10;;;;;;5054150;28;20029;-58
2021/11/18 04:10:35;;;;;;;54.60;33.58;;;13.10;97.30;;;;;;5051566;28;20037;-58
2021/11/18 04:13:00;;;;;;;54.47;33.63;;;13.10;97.00;;;;;;5045483;28;20017;-56
2021/11/18 04:15:27;;;;;;;51.22;32.72;;;13.00;97.00;;;;;;5050914;28;20044;-55
2021/11/18 04:17:53;;;;;;;55.33;34.13;;;13.10;97.10;;;;;;5052727;28;20029;-57
2021/11/18 04:20:20;;;;;;;55.13;33.40;;;13.10;96.90;;;;;;5043521;28;21957;-57
2021/11/18 04:22:47;;;;;;;54.15;33.47;;;13.10;97.00;;;;;;5053073;28;20037;-57
2021/11/18 04:25:18;;;;;;;55.17;33.63;;;13.10;97.20;;;;;;5047634;28;20031;-57
2021/11/18 04:27:44;;;;;;;57.08;34.22;;;13.00;97.30;;;;;;5050672;28;20478;-56
2021/11/18 04:30:14;;;;;;;57.10;35.15;;;13.10;97.60;;;;;;5053421;28;20103;-55
2021/11/18 04:32:41;;;;;;;57.67;34.20;;;13.10;97.60;;;;;;5055340;28;20039;-57
2021/11/18 04:35:07;;;;;;;56.95;34.22;;;13.10;97.40;;;;;;5053589;28;20031;-55
2021/11/18 04:37:33;;;;;;;55.35;34.50;;;13.00;97.50;;;;;;5046783;28;20028;-57
2021/11/18 04:39:59;;;;;;;59.22;36.00;;;13.00;97.90;;;;;;5045824;28;20467;-56
2021/11/18 04:42:26;;;;;;;59.67;35.90;;;13.00;98.10;;;;;;5053560;28;20029;-52
2021/11/18 04:44:52;;;;;;;60.90;34.92;;;13.00;98.10;;;;;;5051928;28;20572;-56
2021/11/18 04:47:18;;;;;;;59.83;35.47;;;13.10;97.80;;;;;;5054426;28;20037;-55
2021/11/18 04:49:45;;;;;;;57.63;34.53;;;12.90;98.50;;;;;;5052559;28;20017;-55
2021/11/18 04:52:13;;;;;;;54.85;35.28;;;13.00;97.90;;;;;;5045920;28;20021;-58
2021/11/18 04:54:39;;;;;;;61.17;36.13;;;13.00;98.40;;;;;;5052387;28;20044;-59
2021/11/18 04:57:06;;;;;;;58.30;35.58;;;12.80;98.30;;;;;;5049557;28;20033;-56
2021/11/18 04:59:32;;;;;;;58.20;34.72;;;12.90;98.50;;;;;;5044456;28;20040;-59
2021/11/18 05:01:59;;;;;;;59.90;35.90;;;12.90;98.60;;;;;;5040278;28;20029;-56
2021/11/18 05:04:25;;;;;;;58.35;36.22;;;12.90;98.50;;;;;;5051346;28;20465;-56
2021/11/18 05:06:50;;;;;;;55.63;34.85;;;13.00;98.30;;;;;;5050532;28;20033;-57
2021/11/18 05:09:16;;;;;;;66.20;35.30;;;12.90;98.20;;;;;;5047256;28;20045;-56
2021/11/18 05:11:42;;;;;;;59.38;35.47;;;12.80;98.40;;;;;;5054059;28;20445;-58
2021/11/18 05:14:09;;;;;;;57.58;34.78;;;12.90;98.40;;;;;;5052531;28;20049;-55
2021/11/18 05:16:35;;;;;;;59.35;35.17;;;12.70;98.20;;;;;;5051828;28;20033;-56
2021/11/18 05:19:00;;;;;;;56.25;33.00;;;12.70;98.30;;;;;;5051419;28;20032;-56
2021/11/18 05:21:29;;;;;;;60.28;35.03;;;12.80;98.30;;;;;;5053197;28;20029;-56
2021/11/18 05:23:57;;;;;;;57.63;32.63;;;12.90;98.30;;;;;;5051885;28;20466;-56
2021/11/18 05:26:24;;;;;;;59.78;34.00;;;12.80;98.30;;;;;;5053868;28;20118;-57
2021/11/18 05:28:49;;;;;;;62.78;33.92;;;12.70;98.20;;;;;;5050119;28;20025;-57
2021/11/18 05:31:18;;;;;;;68.97;34.00;;;12.80;98.40;;;;;;5053841;28;20105;-56
2021/11/18 05:34:20;;;;;;;61.17;34.40;;;12.80;98.30;;;;;;5051547;28;20025;-56
2021/11/18 05:36:46;;;;;;;61.80;35.00;;;12.70;98.80;;;;;;5052347;28;20029;-55
2021/11/18 05:39:12;;;;;;;59.75;34.55;;;12.80;99.00;;;;;;5054181;28;20033;-57
2021/11/18 05:41:37;;;;;;;54.88;33.10;;;12.80;98.70;;;;;;5045901;28;20037;-57
2021/11/18 05:44:04;;;;;;;52.90;32.72;;;12.90;98.40;;;;;;5051875;28;20025;-57
2021/11/18 05:46:35;;;;;;;53.90;31.90;;;12.80;98.50;;;;;;5052574;28;20039;-57
2021/11/18 05:49:03;;;;;;;49.35;28.33;;;12.90;98.10;;;;;;5043954;28;20032;-56
2021/11/18 05:51:29;;;;;;;51.40;30.35;;;12.70;98.70;;;;;;5048574;28;20040;-57
2021/11/18 05:53:54;;;;;;;54.50;31.40;;;12.70;98.60;;;;;;5046168;28;20025;-57
2021/11/18 05:56:22;;;;;;;52.53;31.38;;;12.60;99.00;;;;;;5050693;28;20510;-54
2021/11/18 05:58:51;;;;;;;49.47;29.92;;;12.70;98.80;;;;;;5051914;28;20023;-57
2021/11/18 06:01:19;;;;;;;46.78;28.23;;;12.60;98.60;;;;;;5051145;28;20115;-56
2021/11/18 06:03:45;;;;;;;49.05;30.63;;;12.70;98.80;;;;;;5045733;28;20044;-57
2021/11/18 06:06:11;;;;;;;48.65;29.70;;;12.90;99.00;;;;;;5045155;28;20037;-55
2021/11/18 06:08:39;;;;;;;49.85;30.63;;;12.70;98.70;;;;;;5050231;28;20032;-56
2021/11/18 06:11:06;;;;;;;57.20;30.38;;;12.50;98.90;;;;;;5045898;28;20083;-57
2021/11/18 06:13:33;;;;;;;48.58;27.65;;;12.70;98.90;;;;;;5051552;28;20384;-56
2021/11/18 06:15:59;;;;;;;47.63;29.88;;;12.80;98.60;;;;;;5049508;28;20025;-58
2021/11/18 06:18:25;;;;;;;54.15;31.75;;;12.80;98.90;;;;;;5052030;28;20049;-57
2021/11/18 06:20:51;;;;;;;45.67;29.80;;;12.80;98.70;;;;;;5050770;28;20057;-56
2021/11/18 06:23:17;;;;;;;48.47;29.98;;;12.80;98.30;;;;;;5049548;28;20025;-57
2021/11/18 06:25:43;;;;;;;47.13;31.25;;;12.80;98.40;;;;;;5045822;28;20161;-57
2021/11/18 06:28:10;;;;;;;47.90;29.73;;;12.80;98.40;;;;;;5050904;28;20029;-53
2021/11/18 06:30:44;;;;;;;48.78;29.33;;;12.70;98.40;;;;;;5049285;28;20048;-56
2021/11/18 06:33:10;;;;;;;47.97;29.13;;;12.60;98.40;;;;;;5048483;28;20037;-59
2021/11/18 06:35:37;;;;;;;42.50;27.50;;;12.70;98.20;;;;;;5046246;28;20075;-57
2021/11/18 06:38:03;;;;;;;40.70;25.92;;;12.70;98.20;;;;;;5052576;28;20032;-56
2021/11/18 06:40:29;;;;;;;34.60;23.90;;;12.60;97.80;;;;;;5045632;28;20025;-57
2021/11/18 06:42:56;;;;;;;35.25;23.02;;;12.50;98.70;;;;;;5051203;28;20036;-56
2021/11/18 06:45:27;;;;;;;36.30;24.65;;;12.70;98.00;;;;;;5050623;28;20029;-55
2021/11/18 06:47:53;;;;;;;40.20;25.67;;;12.50;98.60;;;;;;5064153;28;20033;-55
2021/11/18 06:50:19;;;;;;;37.10;24.95;;;12.60;98.60;;;;;;5047072;28;20033;-56
2021/11/18 06:56:11;;;;;;;35.28;25.23;;;12.70;98.20;;;;;;5045260;28;20029;-59
2021/11/18 06:58:37;;;;;;;35.15;24.67;;;12.70;97.40;;;;;;5052778;28;20116;-57
2021/11/18 07:01:03;;;;;;;38.78;24.38;;;12.70;97.30;;;;;;5042074;28;20151;-57
2021/11/18 07:03:29;;;;;;;35.90;25.10;;;12.70;97.60;;;;;;5049543;28;20021;-56
2021/11/18 07:05:55;;;;;;;37.05;25.75;;;12.70;97.60;;;;;;5043615;28;20055;-58
2021/11/18 07:08:20;;;;;;;36.97;25.30;;;12.60;97.40;;;;;;5044552;28;20392;-56
2021/11/18 07:10:46;;;;;;;38.72;25.67;;;12.70;97.40;;;;;;5046700;28;20063;-56
2021/11/18 07:13:16;;;;;;;34.25;24.35;;;12.80;97.30;;;;;;5043711;28;20128;-56
2021/11/18 07:15:42;;;;;;;35.63;25.27;;;12.70;97.30;;;;;;5042467;28;20032;-56
2021/11/18 07:18:07;;;;;;;37.00;26.20;;;12.70;97.50;;;;;;5044750;28;20531;-58
2021/11/18 07:20:34;;;;;;;36.63;26.08;;;12.60;97.60;;;;;;5049254;28;20108;-57
2021/11/18 07:22:59;;;;;;;34.97;24.65;;;12.60;97.40;;;;;;5046151;28;20029;-56
2021/11/18 07:25:26;;;;;;;33.08;24.05;;;12.60;97.50;;;;;;5049398;28;20572;-58
2021/11/18 07:27:52;;;;;;;34.78;25.13;;;12.50;97.90;;;;;;5049839;28;20036;-54
2021/11/18 07:30:20;;;;;;;36.33;24.65;;;12.60;97.70;;;;;;5049615;28;20045;-58
2021/11/18 07:32:47;;;;;;;39.38;26.00;;;12.50;97.70;;;;;;5050917;28;20021;-57
2021/11/18 07:35:14;;;;;;;39.10;26.02;;;12.70;97.90;;;;;;5045782;28;20364;-58
2021/11/18 07:37:39;;;;;;;33.20;24.20;;;12.80;97.70;;;;;;5044078;28;20033;-55
2021/11/18 07:40:08;;;;;;;40.97;26.25;;;12.80;97.20;;;;;;5050042;28;20100;-56
2021/11/18 07:42:34;;;;;;;35.50;25.13;;;12.80;97.30;;;;;;5044660;28;20107;-57
2021/11/18 07:45:00;;;;;;;37.50;24.85;;;12.90;97.30;;;;;;5034590;28;20029;-56
2021/11/18 07:47:27;;;;;;;36.33;24.33;;;12.80;97.40;;;;;;5044951;28;20040;-57
2021/11/18 07:49:54;;;;;;;39.53;27.02;;;12.90;97.40;;;;;;5040589;28;20472;-57
2021/11/18 07:52:19;;;;;;;39.60;26.58;;;12.70;97.60;;;;;;5049188;28;20025;-56
2021/11/18 07:54:45;;;;;;;41.50;24.77;;;12.80;97.40;;;;;;5048602;28;20029;-56
2021/11/18 07:57:11;;;;;;;38.92;26.00;;;13.00;97.50;;;;;;5043508;28;20455;-55
2021/11/18 07:59:37;;;;;;;37.97;24.48;;;13.00;97.00;;;;;;5040383;28;20104;-58
2021/11/18 08:02:04;;;;;;;30.67;23.02;;;13.10;96.60;;;;;;5049829;28;20029;-59
2021/11/18 08:04:31;;;;;;;33.63;25.25;;;13.10;97.00;;;;;;5038841;28;20031;-57
2021/11/18 08:06:59;;;;;;;36.08;24.80;;;13.00;96.60;;;;;;5039141;28;20037;-58
2021/11/18 08:09:25;;;;;;;35.42;24.00;;;13.10;96.60;;;;;;5043488;28;20083;-58
2021/11/18 08:11:53;;;;;;;34.80;24.67;;;13.10;96.40;;;;;;5047565;28;20478;-57
2021/11/18 08:14:20;;;;;;;37.08;24.85;;;13.10;96.50;;;;;;5045993;28;20029;-56
2021/11/18 08:17:41;;;;;;;31.73;23.00;;;13.10;96.50;;;;;;5049743;28;20021;-56
2021/11/18 08:20:08;;;;;;;34.40;23.48;;;13.10;96.50;;;;;;5050335;28;20025;-57
2021/11/18 08:22:34;;;;;;;34.30;23.48;;;13.10;96.30;;;;;;5048347;28;20045;-57
2021/11/18 08:25:00;;;;;;;32.83;21.92;;;13.20;96.40;;;;;;5051101;28;20076;-59
2021/11/18 08:27:25;;;;;;;31.67;22.02;;;13.30;95.70;;;;;;5048764;28;20033;-56
2021/11/18 08:29:51;;;;;;;31.83;22.10;;;13.20;95.90;;;;;;5048804;28;20513;-58
2021/11/18 08:32:18;;;;;;;31.60;21.85;;;13.30;95.50;;;;;;5041379;28;20034;-58
2021/11/18 08:34:45;;;;;;;30.33;21.30;;;13.30;94.90;;;;;;5043494;28;20312;-58
2021/11/18 08:37:12;;;;;;;32.97;23.65;;;13.20;95.60;;;;;;5044068;28;20079;-57
2021/11/18 08:39:38;;;;;;;32.10;22.30;;;13.30;95.70;;;;;;5051345;28;20104;-58
2021/11/18 08:42:08;;;;;;;32.15;22.30;;;13.30;95.80;;;;;;5036401;28;20035;-58
2021/11/18 08:44:35;;;;;;;32.60;24.10;;;13.30;95.70;;;;;;5041218;28;20073;-58
2021/11/18 08:47:03;;;;;;;31.02;21.15;;;13.20;95.70;;;;;;5043484;28;20036;-58
2021/11/18 08:49:29;;;;;;;34.30;23.73;;;13.30;95.70;;;;;;5050838;28;20112;-59
2021/11/18 08:51:57;;;;;;;34.70;23.67;;;13.50;95.60;;;;;;5050507;28;20083;-57
2021/11/18 08:54:25;;;;;;;32.63;21.38;;;13.30;95.90;;;;;;5054491;28;20487;-59
2021/11/18 08:56:52;;;;;;;33.03;22.25;;;13.40;95.90;;;;;;5051183;28;20032;-58
2021/11/18 08:59:20;;;;;;;32.60;23.63;;;13.30;95.70;;;;;;5049688;28;20021;-58
2021/11/18 09:01:53;;;;;;;35.80;25.58;;;13.50;95.90;;;;;;5050123;28;20058;-59
2021/11/18 09:04:20;;;;;;;34.28;23.80;;;13.40;95.80;;;;;;5047779;28;20021;-58
2021/11/18 09:06:46;;;;;;;33.58;23.35;;;13.40;95.60;;;;;;5043608;28;20166;-57
2021/11/18 09:09:14;;;;;;;30.42;21.92;;;13.40;95.60;;;;;;5053369;28;20032;-56
2021/11/18 09:11:40;;;;;;;32.13;22.42;;;13.50;95.00;;;;;;5049062;28;20494;-59
2021/11/18 09:14:07;;;;;;;34.03;23.50;;;13.50;95.20;;;;;;5053654;28;20036;-59
2021/11/18 09:16:36;;;;;;;30.45;21.15;;;13.40;95.00;;;;;;5044581;28;20029;-59
2021/11/18 09:19:03;;;;;;;28.45;19.65;;;13.50;94.90;;;;;;5049144;28;20041;-60
2021/11/18 09:21:30;;;;;;;26.35;19.95;;;13.50;94.20;;;;;;5047956;28;20025;-58
2021/11/18 09:24:06;;;;;;;29.00;21.13;;;13.60;94.90;;;;;;5054259;28;20069;-58
2021/11/18 09:26:35;;;;;;;28.40;20.27;;;13.60;94.90;;;;;;5049871;28;20044;-58
2021/11/18 09:29:01;;;;;;;30.25;20.40;;;13.70;94.50;;;;;;5047869;28;20025;-58
2021/11/18 09:31:30;;;;;;;28.95;20.17;;;13.70;94.60;;;;;;5046460;28;20056;-59
2021/11/18 09:33:57;;;;;;;31.77;21.23;;;13.80;94.60;;;;;;5045828;28;20039;-59
2021/11/18 09:36:25;;;;;;;24.23;18.35;;;14.00;93.90;;;;;;5043990;28;20033;-61
2021/11/18 09:38:52;;;;;;;25.92;19.02;;;14.10;93.70;;;;;;5052837;28;20031;-59
2021/11/18 09:41:27;;;;;;;25.98;18.85;;;14.00;93.50;;;;;;5046509;28;20029;-59
2021/11/18 09:44:11;;;;;;;;;;;13.90;93.60;;;;;;5051535;28;20036;-59
2021/11/18 09:47:10;;;;;;;27.63;19.48;;;14.00;93.40;;;;;;5051077;28;19917;-59
2021/11/18 09:50:03;;;;;;;30.63;19.88;;;14.10;93.30;;;;;;5066696;28;20411;-58
2021/11/18 09:52:50;;;;;;;31.50;20.40;;;14.00;93.90;;;;;;5045736;28;20083;-59
2021/11/18 09:55:28;;;;;;;29.88;21.20;;;14.10;93.60;;;;;;5047334;28;20034;-60
2021/11/18 09:58:17;;;;;;;29.80;19.88;;;14.10;93.90;;;;;;5048367;28;20035;-59
2021/11/18 10:01:09;;;;;;;24.75;20.08;;;14.20;93.40;;;;;;5043390;28;20035;-58
2021/11/18 10:03:58;;;;;;;31.10;21.10;;;14.20;93.40;;;;;;5051166;28;20095;-59
2021/11/18 10:06:36;;;;;;;28.25;19.67;;;14.20;93.10;;;;;;5041989;28;20037;-59
2021/11/18 10:09:19;;;;;;;24.67;19.15;;;14.30;93.50;;;;;;5049955;28;20104;-58
2021/11/18 10:12:13;;;;;;;29.88;19.75;;;14.30;92.90;;;;;;5043327;28;20094;-60
2021/11/18 10:15:02;;;;;;;31.35;19.90;;;14.40;93.20;;;;;;5046815;28;20024;-59
2021/11/18 10:17:34;;;;;;;28.00;19.83;;;14.30;93.00;;;;;;5050380;28;20178;-58
2021/11/18 10:20:26;;;;;;;27.00;18.50;;;14.40;92.90;;;;;;5046094;28;20051;-58
2021/11/18 10:23:07;;;;;;;26.10;19.60;;;14.60;93.20;;;;;;5051944;28;20390;-59
2021/11/18 10:25:48;;;;;;;29.85;20.20;;;14.50;92.70;;;;;;5042047;28;20079;-60
2021/11/18 10:28:20;;;;;;;30.38;21.38;;;14.50;92.90;;;;;;5042849;28;20033;-60
2021/11/18 10:30:53;;;;;;;27.02;19.02;;;14.50;93.30;;;;;;5048841;28;20406;-60
2021/11/18 10:33:29;;;;;;;30.10;19.50;;;14.60;92.90;;;;;;5040443;28;20033;-59
2021/11/18 10:36:16;;;;;;;26.23;19.02;;;14.60;92.70;;;;;;5040495;28;20102;-59
2021/11/18 10:39:01;;;;;;;28.63;19.58;;;14.70;92.20;;;;;;5050997;28;20086;-59
2021/11/18 10:41:32;;;;;;;27.23;19.63;;;14.80;92.00;;;;;;5042896;28;20447;-60
2021/11/18 10:44:11;;;;;;;27.17;19.33;;;14.70;92.40;;;;;;5047048;28;20487;-59
2021/11/18 10:46:45;;;;;;;23.98;18.50;;;14.80;92.60;;;;;;5045120;28;20048;-59
2021/11/18 10:49:28;;;;;;;26.50;18.10;;;14.80;92.70;;;;;;5048626;28;20026;-59
2021/11/18 10:51:56;;;;;;;26.88;18.27;;;14.90;92.40;;;;;;5048388;28;20049;-60
2021/11/18 10:54:49;;;;;;;26.08;18.98;;;14.80;91.60;;;;;;5044891;28;20479;-60
2021/11/18 10:57:22;;;;;;;27.08;20.77;;;14.90;91.90;;;;;;5045778;28;20033;-60
2021/11/18 10:59:53;;;;;;;26.95;20.02;;;14.90;92.40;;;;;;5039080;28;20500;-59
2021/11/18 11:02:19;;;;;;;27.05;19.35;;;14.90;92.40;;;;;;5044766;28;20037;-59
2021/11/18 11:04:48;;;;;;;27.10;19.42;;;15.00;91.60;;;;;;5042152;28;20055;-59
2021/11/18 11:07:15;;;;;;;25.98;19.15;;;15.10;91.90;;;;;;5042679;28;20049;-60
2021/11/18 11:09:47;;;;;;;29.35;20.45;;;15.10;91.90;;;;;;5045302;28;20021;-58
2021/11/18 11:12:45;;;;;;;27.75;20.92;;;15.10;92.30;;;;;;5042506;28;20137;-60
2021/11/18 11:15:45;;;;;;;32.95;23.08;;;15.20;91.30;;;;;;5033912;28;20120;-59
2021/11/18 11:18:43;;;;;;;25.98;20.65;;;15.20;91.40;;;;;;5047093;28;20116;-59
2021/11/18 11:21:26;;;;;;;26.73;21.50;;;15.20;90.90;;;;;;5040461;28;20033;-59
2021/11/18 11:24:26;;;;;;;29.02;21.85;;;15.40;91.60;;;;;;5038735;28;20456;-59
2021/11/18 11:27:13;;;;;;;28.25;21.80;;;15.30;91.40;;;;;;5048027;28;20040;-60
2021/11/18 11:29:54;;;;;;;29.58;21.50;;;15.40;91.80;;;;;;5047652;28;20063;-59
2021/11/18 11:32:23;;;;;;;31.08;22.65;;;15.30;91.90;;;;;;5049010;28;20036;-57
2021/11/18 11:35:06;;;;;;;30.70;23.65;;;15.40;91.80;;;;;;5050196;28;20103;-62
2021/11/18 11:37:59;;;;;;;35.08;23.63;;;15.40;91.60;;;;;;5050287;28;20028;-59
2021/11/18 11:41:03;;;;;;;30.08;21.17;;;15.50;91.70;;;;;;5042496;28;20021;-60
2021/11/18 11:43:48;;;;;;;31.05;22.42;;;15.40;91.60;;;;;;5034224;28;20367;-60
2021/11/18 11:47:08;;;;;;;27.98;21.40;;;15.50;91.70;;;;;;5034047;28;20044;-60
2021/11/18 11:49:38;;;;;;;26.75;19.58;;;15.40;91.80;;;;;;4983989;28;20034;-59
2021/11/18 11:52:18;;;;;;;30.20;21.30;;;15.50;92.30;;;;;;5039431;28;20441;-60
2021/11/18 11:55:11;;;;;;;26.60;20.13;;;15.50;91.90;;;;;;5052256;28;20032;-60
2021/11/18 11:57:49;;;;;;;28.52;20.13;;;15.50;91.20;;;;;;5038861;28;20541;-60
2021/11/18 12:00:52;;;;;;;23.50;18.63;;;15.50;91.30;;;;;;5041055;28;20036;-61
2021/11/18 12:03:51;;;;;;;25.15;18.60;;;15.60;91.40;;;;;;5047928;28;20035;-60
2021/11/18 12:06:39;;;;;;;24.98;18.65;;;15.60;91.70;;;;;;5048025;28;20514;-61
2021/11/18 12:09:44;;;;;;;24.88;18.05;;;15.70;91.30;;;;;;5049614;28;20029;-59
2021/11/18 12:12:13;;;;;;;;;;;15.70;91.60;;;;;;5048760;28;20108;-58
2021/11/18 12:14:45;;;;;;;25.27;18.58;;;15.70;91.30;;;;;;5048624;28;19912;-59
2021/11/18 12:17:40;;;;;;;30.00;18.38;;;15.70;91.80;;;;;;5036011;28;20056;-58
2021/11/18 12:20:17;;;;;;;26.50;18.25;;;15.70;91.50;;;;;;5055552;28;20049;-59
2021/11/18 12:22:42;;;;;;;26.85;19.80;;;15.80;91.50;;;;;;5042082;28;20056;-60
2021/11/18 12:25:17;;;;;;;27.02;19.92;;;15.90;91.50;;;;;;5050920;28;20056;-60
2021/11/18 12:27:49;;;;;;;28.83;20.40;;;15.90;91.20;;;;;;5053062;28;20045;-59
2021/11/18 12:30:40;;;;;;;28.17;20.30;;;16.00;91.30;;;;;;5047006;28;20095;-60
2021/11/18 12:33:26;;;;;;;27.02;19.55;;;16.10;91.00;;;;;;5054182;28;20125;-59
2021/11/18 12:36:21;;;;;;;26.65;20.52;;;16.20;90.60;;;;;;5038565;28;20121;-59
2021/11/18 12:38:49;;;;;;;29.02;21.38;;;16.20;90.40;;;;;;5043304;28;20032;-58
2021/11/18 12:41:43;;;;;;;30.02;20.95;;;16.20;90.60;;;;;;5054202;28;20045;-59
2021/11/18 12:44:20;;;;;;;23.73;19.98;;;16.30;90.20;;;;;;5047260;28;20025;-60
2021/11/18 12:46:58;;;;;;;28.98;22.60;;;16.30;89.90;;;;;;5048666;28;20116;-59
2021/11/18 12:49:52;;;;;;;28.73;21.67;;;16.40;89.40;;;;;;5044188;28;20037;-59
2021/11/18 12:52:30;;;;;;;29.85;21.85;;;16.50;88.20;;;;;;5051406;28;20378;-58